今朝の成田(2017/05/06)

JJP12/JA06JJ(A320)

VNL100/JA03VA(A320)

ANA832/JA617A(B763)

ANA179/JA828A(B788)

*JJP501/JA18JJ(A320)

CPA524/B-HNJ(B773)

THA640/HS-TUC(A388)

JJP40/JA14JJ(A320)

NCA133/JA17KZ(B748)

CPA006/B-LJJ(B748)

*JJP101/JA08JJ(A320)

ANA814/JA624A(B763) with winglet

JAL740/JA833J(B788)

*JJP401/JA20JJ(A320)

AMX058/N783AM(B788)

ANA818/JA804A(B788)

JAL724/JA861J(B789)

JAL752/JA836J(B788)

FDX31/N856FD(B77L)

ALK454/4R-ALL(A333)

NCA228/JA08KZ(B744)

*JJP301/JA15JJ(A320)

NCA089/JA15KZ(B748)

JAL726/JA866J(B789)

AAR1077/HL8267(A321)

VNL300/JA05VA(A320)

FDX9165/N628FE(MD11)

KAL9132/HL7721(B772)

CRK606/B-LPK(A320)

*SJO661/JA01GR(B738)

*JJP503/JA17JJ(A320)

ANA8522/JA602F(B763)

*SJO621/JA04GR(B738)

*VNL905/JA10VA(A320)

RJAA 052100Z 14003KT 7000 FEW003 15/15 Q1013 NOSIG RMK 1ST003 A2993

RJAA 052200Z 19008KT 9999 FEW005 BKN010 BKN/// 18/17 Q1013 BECMG FEW005 BKN015 RMK 1ST005 5CU010 A2992

今朝の成田は雲があるようです。